sensor_id;sensor_type;location;lat;lon;timestamp;pressure;altitude;pressure_sealevel;temperature;humidity
73267;BME280;61495;53.400;7.608;2023-04-09T00:00:21;102718.97;;;9.14;79.56
73267;BME280;61495;53.400;7.608;2023-04-09T00:02:47;102718.81;;;9.15;78.64
73267;BME280;61495;53.400;7.608;2023-04-09T00:05:12;102712.25;;;9.10;79.56
73267;BME280;61495;53.400;7.608;2023-04-09T00:07:38;102718.13;;;9.13;78.64
73267;BME280;61495;53.400;7.608;2023-04-09T00:10:04;102720.13;;;9.11;79.75
73267;BME280;61495;53.400;7.608;2023-04-09T00:12:31;102716.63;;;9.11;79.11
73267;BME280;61495;53.400;7.608;2023-04-09T00:14:57;102714.78;;;9.11;78.71
73267;BME280;61495;53.400;7.608;2023-04-09T00:17:22;102720.25;;;9.10;80.73
73267;BME280;61495;53.400;7.608;2023-04-09T00:19:47;102712.41;;;9.08;79.74
73267;BME280;61495;53.400;7.608;2023-04-09T00:22:13;102714.25;;;9.08;79.63
73267;BME280;61495;53.400;7.608;2023-04-09T00:24:39;102710.19;;;9.04;79.57
73267;BME280;61495;53.400;7.608;2023-04-09T00:27:04;102712.72;;;9.05;78.79
73267;BME280;61495;53.400;7.608;2023-04-09T00:29:29;102718.34;;;9.02;80.78
73267;BME280;61495;53.400;7.608;2023-04-09T00:31:55;102709.31;;;9.03;79.73
73267;BME280;61495;53.400;7.608;2023-04-09T00:34:20;102707.66;;;9.02;80.79
73267;BME280;61495;53.400;7.608;2023-04-09T00:36:46;102705.66;;;9.04;79.67
73267;BME280;61495;53.400;7.608;2023-04-09T00:39:11;102705.97;;;9.01;80.92
73267;BME280;61495;53.400;7.608;2023-04-09T00:41:36;102698.94;;;9.00;79.87
73267;BME280;61495;53.400;7.608;2023-04-09T00:44:02;102704.28;;;9.00;80.10
73267;BME280;61495;53.400;7.608;2023-04-09T00:46:27;102695.56;;;8.98;80.80
73267;BME280;61495;53.400;7.608;2023-04-09T00:48:53;102701.91;;;8.97;80.98
73267;BME280;61495;53.400;7.608;2023-04-09T00:51:18;102695.88;;;8.95;79.53
73267;BME280;61495;53.400;7.608;2023-04-09T00:53:44;102694.06;;;8.96;79.70
73267;BME280;61495;53.400;7.608;2023-04-09T00:56:11;102688.84;;;8.94;80.22
73267;BME280;61495;53.400;7.608;2023-04-09T00:58:39;102691.81;;;8.91;80.78
73267;BME280;61495;53.400;7.608;2023-04-09T01:01:04;102693.50;;;8.92;80.81
73267;BME280;61495;53.400;7.608;2023-04-09T01:03:30;102694.50;;;8.91;81.98
73267;BME280;61495;53.400;7.608;2023-04-09T01:06:11;102691.13;;;8.89;81.93
73267;BME280;61495;53.400;7.608;2023-04-09T01:11:22;102697.63;;;8.86;81.19
73267;BME280;61495;53.400;7.608;2023-04-09T01:16:22;102697.06;;;8.83;81.42
73267;BME280;61495;53.400;7.608;2023-04-09T01:19:00;102695.38;;;8.82;82.02
73267;BME280;61495;53.400;7.608;2023-04-09T01:21:31;102698.22;;;8.80;83.35
73267;BME280;61495;53.400;7.608;2023-04-09T01:24:20;102690.03;;;8.82;81.50
73267;BME280;61495;53.400;7.608;2023-04-09T01:27:05;102690.03;;;8.82;80.41
73267;BME280;61495;53.400;7.608;2023-04-09T01:29:32;102694.56;;;8.81;80.21
73267;BME280;61495;53.400;7.608;2023-04-09T01:32:01;102688.22;;;8.82;80.50
73267;BME280;61495;53.400;7.608;2023-04-09T01:34:27;102688.38;;;8.81;80.51
73267;BME280;61495;53.400;7.608;2023-04-09T01:37:05;102688.69;;;8.78;81.97
73267;BME280;61495;53.400;7.608;2023-04-09T01:39:54;102681.63;;;8.77;81.91
73267;BME280;61495;53.400;7.608;2023-04-09T01:42:38;102686.13;;;8.76;81.98
73267;BME280;61495;53.400;7.608;2023-04-09T01:45:30;102687.16;;;8.75;81.45
73267;BME280;61495;53.400;7.608;2023-04-09T01:48:12;102682.94;;;8.73;83.02
73267;BME280;61495;53.400;7.608;2023-04-09T01:51:02;102688.97;;;8.75;81.30
73267;BME280;61495;53.400;7.608;2023-04-09T01:53:53;102683.63;;;8.75;81.27
73267;BME280;61495;53.400;7.608;2023-04-09T01:56:18;102681.94;;;8.74;81.10
73267;BME280;61495;53.400;7.608;2023-04-09T01:58:43;102682.22;;;8.71;82.40
73267;BME280;61495;53.400;7.608;2023-04-09T02:01:19;102671.00;;;8.67;83.35
73267;BME280;61495;53.400;7.608;2023-04-09T02:03:57;102678.88;;;8.69;83.55
73267;BME280;61495;53.400;7.608;2023-04-09T02:06:32;102674.81;;;8.65;82.95
73267;BME280;61495;53.400;7.608;2023-04-09T02:08:59;102677.50;;;8.65;82.58
73267;BME280;61495;53.400;7.608;2023-04-09T02:11:28;102676.94;;;8.61;83.84
73267;BME280;61495;53.400;7.608;2023-04-09T02:13:54;102672.44;;;8.62;83.01
73267;BME280;61495;53.400;7.608;2023-04-09T02:16:21;102673.88;;;8.56;83.42
73267;BME280;61495;53.400;7.608;2023-04-09T02:18:52;102674.44;;;8.60;83.75
73267;BME280;61495;53.400;7.608;2023-04-09T02:21:17;102677.22;;;8.58;82.92
73267;BME280;61495;53.400;7.608;2023-04-09T02:23:42;102678.38;;;8.56;83.85
73267;BME280;61495;53.400;7.608;2023-04-09T02:26:08;102662.66;;;8.53;84.30
73267;BME280;61495;53.400;7.608;2023-04-09T02:28:33;102676.41;;;8.58;82.38
73267;BME280;61495;53.400;7.608;2023-04-09T02:30:58;102667.69;;;8.56;82.28
73267;BME280;61495;53.400;7.608;2023-04-09T02:33:24;102669.38;;;8.57;82.51
73267;BME280;61495;53.400;7.608;2023-04-09T02:35:49;102671.66;;;8.52;84.37
73267;BME280;61495;53.400;7.608;2023-04-09T02:38:15;102670.66;;;8.53;83.34
73267;BME280;61495;53.400;7.608;2023-04-09T02:40:40;102668.00;;;8.53;83.99
73267;BME280;61495;53.400;7.608;2023-04-09T02:43:06;102671.66;;;8.52;83.27
73267;BME280;61495;53.400;7.608;2023-04-09T02:45:31;102666.31;;;8.52;82.93
73267;BME280;61495;53.400;7.608;2023-04-09T02:47:56;102670.81;;;8.51;82.50
73267;BME280;61495;53.400;7.608;2023-04-09T02:50:22;102654.94;;;8.50;83.84
73267;BME280;61495;53.400;7.608;2023-04-09T02:52:47;102656.78;;;8.49;83.36
73267;BME280;61495;53.400;7.608;2023-04-09T02:55:13;102655.94;;;8.49;84.67
73267;BME280;61495;53.400;7.608;2023-04-09T02:57:38;102650.19;;;8.44;85.02
73267;BME280;61495;53.400;7.608;2023-04-09T03:00:04;102649.19;;;8.45;82.91
73267;BME280;61495;53.400;7.608;2023-04-09T03:02:29;102653.56;;;8.46;84.52
73267;BME280;61495;53.400;7.608;2023-04-09T03:04:55;102640.22;;;8.46;82.85
73267;BME280;61495;53.400;7.608;2023-04-09T03:07:21;102643.84;;;8.45;83.26
73267;BME280;61495;53.400;7.608;2023-04-09T03:09:46;102642.16;;;8.44;84.01
73267;BME280;61495;53.400;7.608;2023-04-09T03:12:12;102637.84;;;8.43;84.45
73267;BME280;61495;53.400;7.608;2023-04-09T03:14:37;102638.81;;;8.42;82.58
73267;BME280;61495;53.400;7.608;2023-04-09T03:17:02;102644.16;;;8.42;82.04
73267;BME280;61495;53.400;7.608;2023-04-09T03:19:29;102642.47;;;8.41;83.34
73267;BME280;61495;53.400;7.608;2023-04-09T03:21:55;102645.28;;;8.39;84.30
73267;BME280;61495;53.400;7.608;2023-04-09T03:24:20;102647.13;;;8.38;83.60
73267;BME280;61495;53.400;7.608;2023-04-09T03:26:45;102641.78;;;8.38;82.05
73267;BME280;61495;53.400;7.608;2023-04-09T03:29:11;102636.91;;;8.34;84.69
73267;BME280;61495;53.400;7.608;2023-04-09T03:31:36;102637.72;;;8.34;82.73
73267;BME280;61495;53.400;7.608;2023-04-09T03:34:01;102635.03;;;8.34;82.50
73267;BME280;61495;53.400;7.608;2023-04-09T03:36:27;102627.31;;;8.31;83.96
73267;BME280;61495;53.400;7.608;2023-04-09T03:38:52;102632.66;;;8.31;83.37
73267;BME280;61495;53.400;7.608;2023-04-09T03:41:18;102626.34;;;8.32;83.33
73267;BME280;61495;53.400;7.608;2023-04-09T03:43:43;102625.50;;;8.32;83.11
73267;BME280;61495;53.400;7.608;2023-04-09T03:46:13;102625.66;;;8.30;83.52
73267;BME280;61495;53.400;7.608;2023-04-09T03:48:39;102623.97;;;8.29;83.98
73267;BME280;61495;53.400;7.608;2023-04-09T03:51:04;102622.28;;;8.28;84.32
73267;BME280;61495;53.400;7.608;2023-04-09T03:53:29;102622.28;;;8.28;83.25
73267;BME280;61495;53.400;7.608;2023-04-09T03:55:55;102624.22;;;8.26;84.61
73267;BME280;61495;53.400;7.608;2023-04-09T03:58:20;102627.91;;;8.25;84.30
73267;BME280;61495;53.400;7.608;2023-04-09T04:00:46;102623.38;;;8.26;83.03
73267;BME280;61495;53.400;7.608;2023-04-09T04:03:11;102625.25;;;8.25;85.08
73267;BME280;61495;53.400;7.608;2023-04-09T04:05:38;102626.22;;;8.24;83.14
73267;BME280;61495;53.400;7.608;2023-04-09T04:08:04;102629.19;;;8.21;83.98
73267;BME280;61495;53.400;7.608;2023-04-09T04:10:29;102626.50;;;8.21;84.11
73267;BME280;61495;53.400;7.608;2023-04-09T04:12:55;102628.22;;;8.22;83.34
73267;BME280;61495;53.400;7.608;2023-04-09T04:15:20;102632.84;;;8.20;84.23
73267;BME280;61495;53.400;7.608;2023-04-09T04:17:45;102630.16;;;8.20;83.33
73267;BME280;61495;53.400;7.608;2023-04-09T04:20:11;102628.50;;;8.19;83.88
73267;BME280;61495;53.400;7.608;2023-04-09T04:22:36;102640.84;;;8.20;83.06
73267;BME280;61495;53.400;7.608;2023-04-09T04:25:05;102638.34;;;8.19;84.32
73267;BME280;61495;53.400;7.608;2023-04-09T04:27:30;102631.31;;;8.18;83.84
73267;BME280;61495;53.400;7.608;2023-04-09T04:29:56;102632.16;;;8.18;83.77
73267;BME280;61495;53.400;7.608;2023-04-09T04:32:23;102640.16;;;8.18;82.94
73267;BME280;61495;53.400;7.608;2023-04-09T04:34:48;102635.97;;;8.16;83.02
73267;BME280;61495;53.400;7.608;2023-04-09T04:37:14;102645.78;;;8.15;83.84
73267;BME280;61495;53.400;7.608;2023-04-09T04:39:39;102633.72;;;8.11;83.83
73267;BME280;61495;53.400;7.608;2023-04-09T04:42:05;102642.56;;;8.12;84.58
73267;BME280;61495;53.400;7.608;2023-04-09T04:44:30;102646.09;;;8.12;84.77
73267;BME280;61495;53.400;7.608;2023-04-09T04:46:55;102642.84;;;8.09;85.32
73267;BME280;61495;53.400;7.608;2023-04-09T04:49:21;102649.72;;;8.11;83.84
73267;BME280;61495;53.400;7.608;2023-04-09T04:51:46;102646.38;;;8.09;84.14
73267;BME280;61495;53.400;7.608;2023-04-09T04:54:11;102647.63;;;8.05;85.93
73267;BME280;61495;53.400;7.608;2023-04-09T04:56:37;102641.44;;;8.05;85.76
73267;BME280;61495;53.400;7.608;2023-04-09T04:59:02;102643.16;;;8.06;84.66
73267;BME280;61495;53.400;7.608;2023-04-09T05:01:27;102644.00;;;8.06;84.59
73267;BME280;61495;53.400;7.608;2023-04-09T05:03:53;102640.34;;;8.07;84.97
73267;BME280;61495;53.400;7.608;2023-04-09T05:06:18;102647.34;;;8.08;85.36
73267;BME280;61495;53.400;7.608;2023-04-09T05:08:43;102648.50;;;8.06;84.64
73267;BME280;61495;53.400;7.608;2023-04-09T05:11:12;102643.31;;;8.04;85.59
73267;BME280;61495;53.400;7.608;2023-04-09T05:13:39;102650.47;;;8.04;84.73
73267;BME280;61495;53.400;7.608;2023-04-09T05:16:05;102650.31;;;8.05;86.78
73267;BME280;61495;53.400;7.608;2023-04-09T05:18:30;102646.28;;;8.01;85.16
73267;BME280;61495;53.400;7.608;2023-04-09T05:20:56;102649.63;;;8.03;85.67
73267;BME280;61495;53.400;7.608;2023-04-09T05:23:21;102643.44;;;8.03;85.63
73267;BME280;61495;53.400;7.608;2023-04-09T05:25:49;102649.63;;;8.03;84.69
73267;BME280;61495;53.400;7.608;2023-04-09T05:28:15;102642.88;;;7.99;86.10
73267;BME280;61495;53.400;7.608;2023-04-09T05:30:46;102643.44;;;8.03;85.79
73267;BME280;61495;53.400;7.608;2023-04-09T05:33:12;102650.19;;;7.97;86.47
73267;BME280;61495;53.400;7.608;2023-04-09T05:35:38;102651.59;;;8.01;86.30
73267;BME280;61495;53.400;7.608;2023-04-09T05:38:04;102658.38;;;7.96;87.69
73267;BME280;61495;53.400;7.608;2023-04-09T05:40:29;102651.75;;;8.00;86.41
73267;BME280;61495;53.400;7.608;2023-04-09T05:42:54;102654.41;;;8.00;85.39
73267;BME280;61495;53.400;7.608;2023-04-09T05:45:20;102663.09;;;8.02;87.00
73267;BME280;61495;53.400;7.608;2023-04-09T05:47:45;102660.31;;;8.03;86.02
73267;BME280;61495;53.400;7.608;2023-04-09T05:50:11;102662.28;;;8.01;87.07
73267;BME280;61495;53.400;7.608;2023-04-09T05:52:37;102653.28;;;8.02;86.44
73267;BME280;61495;53.400;7.608;2023-04-09T05:55:02;102662.97;;;8.03;85.95
73267;BME280;61495;53.400;7.608;2023-04-09T05:57:28;102670.00;;;8.04;85.33
73267;BME280;61495;53.400;7.608;2023-04-09T05:59:54;102659.44;;;8.03;87.33
73267;BME280;61495;53.400;7.608;2023-04-09T06:02:20;102654.13;;;8.03;87.02
73267;BME280;61495;53.400;7.608;2023-04-09T06:04:45;102654.66;;;8.06;85.68
73267;BME280;61495;53.400;7.608;2023-04-09T06:07:11;102652.69;;;8.08;85.23
73267;BME280;61495;53.400;7.608;2023-04-09T06:09:36;102649.03;;;8.09;86.27
73267;BME280;61495;53.400;7.608;2023-04-09T06:12:02;102653.69;;;8.07;87.30
73267;BME280;61495;53.400;7.608;2023-04-09T06:14:28;102650.72;;;8.10;86.55
73267;BME280;61495;53.400;7.608;2023-04-09T06:16:54;102649.03;;;8.09;87.45
73267;BME280;61495;53.400;7.608;2023-04-09T06:19:19;102652.41;;;8.11;87.99
73267;BME280;61495;53.400;7.608;2023-04-09T06:21:45;102648.88;;;8.11;88.54
73267;BME280;61495;53.400;7.608;2023-04-09T06:24:10;102649.72;;;8.11;87.01
73267;BME280;61495;53.400;7.608;2023-04-09T06:26:35;102657.88;;;8.19;86.56
73267;BME280;61495;53.400;7.608;2023-04-09T06:29:01;102645.19;;;8.21;87.78
73267;BME280;61495;53.400;7.608;2023-04-09T06:31:26;102653.59;;;8.26;86.59
73267;BME280;61495;53.400;7.608;2023-04-09T06:33:52;102656.88;;;8.30;88.07
73267;BME280;61495;53.400;7.608;2023-04-09T06:36:18;102656.00;;;8.29;89.33
73267;BME280;61495;53.400;7.608;2023-04-09T06:38:44;102659.78;;;8.36;88.10
73267;BME280;61495;53.400;7.608;2023-04-09T06:41:09;102657.50;;;8.42;88.25
73267;BME280;61495;53.400;7.608;2023-04-09T06:43:37;102649.50;;;8.42;87.58
73267;BME280;61495;53.400;7.608;2023-04-09T06:46:02;102660.28;;;8.50;87.97
73267;BME280;61495;53.400;7.608;2023-04-09T06:48:28;102656.31;;;8.54;87.88
73267;BME280;61495;53.400;7.608;2023-04-09T06:50:53;102654.19;;;8.57;87.56
73267;BME280;61495;53.400;7.608;2023-04-09T06:53:19;102659.53;;;8.57;87.35
73267;BME280;61495;53.400;7.608;2023-04-09T06:55:45;102660.38;;;8.58;87.23
73267;BME280;61495;53.400;7.608;2023-04-09T06:58:10;102667.09;;;8.62;85.98
73267;BME280;61495;53.400;7.608;2023-04-09T07:00:36;102670.78;;;8.61;86.36
73267;BME280;61495;53.400;7.608;2023-04-09T07:03:02;102670.47;;;8.64;85.74
73267;BME280;61495;53.400;7.608;2023-04-09T07:05:27;102663.44;;;8.63;85.27
73267;BME280;61495;53.400;7.608;2023-04-09T07:07:52;102676.50;;;8.66;85.14
73267;BME280;61495;53.400;7.608;2023-04-09T07:10:18;102676.34;;;8.67;85.00
73267;BME280;61495;53.400;7.608;2023-04-09T07:12:43;102672.16;;;8.65;85.03
73267;BME280;61495;53.400;7.608;2023-04-09T07:15:09;102680.88;;;8.67;84.63
73267;BME280;61495;53.400;7.608;2023-04-09T07:17:34;102678.88;;;8.69;84.77
73267;BME280;61495;53.400;7.608;2023-04-09T07:20:00;102675.75;;;8.73;83.96
73267;BME280;61495;53.400;7.608;2023-04-09T07:22:27;102683.34;;;8.78;84.19
73267;BME280;61495;53.400;7.608;2023-04-09T07:24:53;102685.16;;;8.77;83.68
73267;BME280;61495;53.400;7.608;2023-04-09T07:27:20;102674.31;;;8.79;83.18
73267;BME280;61495;53.400;7.608;2023-04-09T07:29:45;102672.66;;;8.78;82.22
73267;BME280;61495;53.400;7.608;2023-04-09T07:32:11;102672.34;;;8.81;82.01
73267;BME280;61495;53.400;7.608;2023-04-09T07:34:36;102678.38;;;8.83;82.11
73267;BME280;61495;53.400;7.608;2023-04-09T07:37:02;102676.84;;;8.80;80.97
73267;BME280;61495;53.400;7.608;2023-04-09T07:39:27;102675.69;;;8.83;80.97
73267;BME280;61495;53.400;7.608;2023-04-09T07:41:53;102678.00;;;8.78;80.75
73267;BME280;61495;53.400;7.608;2023-04-09T07:44:18;102678.38;;;8.83;81.04
73267;BME280;61495;53.400;7.608;2023-04-09T07:46:44;102681.34;;;8.80;80.37
73267;BME280;61495;53.400;7.608;2023-04-09T07:49:12;102684.84;;;8.80;80.88
73267;BME280;61495;53.400;7.608;2023-04-09T07:51:38;102679.91;;;8.85;80.52
73267;BME280;61495;53.400;7.608;2023-04-09T07:54:03;102696.78;;;8.86;80.45
73267;BME280;61495;53.400;7.608;2023-04-09T07:56:29;102692.28;;;8.86;80.63
73267;BME280;61495;53.400;7.608;2023-04-09T07:58:54;102699.03;;;8.90;80.34
73267;BME280;61495;53.400;7.608;2023-04-09T08:01:20;102695.81;;;8.87;80.27
73267;BME280;61495;53.400;7.608;2023-04-09T08:03:49;102694.50;;;8.91;80.23
73267;BME280;61495;53.400;7.608;2023-04-09T08:06:17;102694.19;;;8.94;80.44
73267;BME280;61495;53.400;7.608;2023-04-09T08:08:43;102695.88;;;8.95;80.35
73267;BME280;61495;53.400;7.608;2023-04-09T08:11:11;102699.41;;;8.96;80.08
73267;BME280;61495;53.400;7.608;2023-04-09T08:13:40;102699.22;;;8.97;79.91
73267;BME280;61495;53.400;7.608;2023-04-09T08:16:05;102700.31;;;9.04;79.54
73267;BME280;61495;53.400;7.608;2023-04-09T08:18:31;102702.41;;;9.10;79.38
73267;BME280;61495;53.400;7.608;2023-04-09T08:20:56;102694.69;;;9.07;79.16
73267;BME280;61495;53.400;7.608;2023-04-09T08:23:22;102695.22;;;9.11;79.03
73267;BME280;61495;53.400;7.608;2023-04-09T08:25:47;102708.13;;;9.15;79.10
73267;BME280;61495;53.400;7.608;2023-04-09T08:28:12;102702.09;;;9.13;79.36
73267;BME280;61495;53.400;7.608;2023-04-09T08:30:38;102701.63;;;9.18;79.18
73267;BME280;61495;53.400;7.608;2023-04-09T08:33:03;102702.16;;;9.21;79.17
73267;BME280;61495;53.400;7.608;2023-04-09T08:35:29;102695.38;;;9.27;78.98
73267;BME280;61495;53.400;7.608;2023-04-09T08:37:55;102699.91;;;9.26;78.98
73267;BME280;61495;53.400;7.608;2023-04-09T08:40:21;102699.81;;;9.36;78.75
73267;BME280;61495;53.400;7.608;2023-04-09T08:42:53;102698.34;;;9.41;78.79
73267;BME280;61495;53.400;7.608;2023-04-09T08:45:20;102693.41;;;9.46;79.02
73267;BME280;61495;53.400;7.608;2023-04-09T08:47:48;102691.56;;;9.47;78.10
73267;BME280;61495;53.400;7.608;2023-04-09T08:50:17;102691.94;;;9.52;77.66
73267;BME280;61495;53.400;7.608;2023-04-09T08:52:45;102692.16;;;9.59;77.96
73267;BME280;61495;53.400;7.608;2023-04-09T08:55:11;102691.84;;;9.62;77.51
73267;BME280;61495;53.400;7.608;2023-04-09T08:57:37;102690.84;;;9.63;77.71
73267;BME280;61495;53.400;7.608;2023-04-09T09:00:03;102689.03;;;9.89;77.32
73267;BME280;61495;53.400;7.608;2023-04-09T09:02:29;102679.75;;;10.01;76.61
73267;BME280;61495;53.400;7.608;2023-04-09T09:04:56;102680.78;;;10.08;76.00
73267;BME280;61495;53.400;7.608;2023-04-09T09:07:26;102685.44;;;10.24;76.30
73267;BME280;61495;53.400;7.608;2023-04-09T09:09:53;102681.31;;;10.37;74.57
73267;BME280;61495;53.400;7.608;2023-04-09T09:12:42;102674.34;;;10.52;74.56
73267;BME280;61495;53.400;7.608;2023-04-09T09:15:24;102676.41;;;10.67;74.56
73267;BME280;61495;53.400;7.608;2023-04-09T09:17:58;102676.78;;;10.72;74.21
73267;BME280;61495;53.400;7.608;2023-04-09T09:20:25;102678.50;;;10.81;74.41
73267;BME280;61495;53.400;7.608;2023-04-09T09:22:54;102672.50;;;10.95;73.15
73267;BME280;61495;53.400;7.608;2023-04-09T09:25:21;102663.81;;;11.09;74.36
73267;BME280;61495;53.400;7.608;2023-04-09T09:27:49;102674.22;;;11.20;72.93
73267;BME280;61495;53.400;7.608;2023-04-09T09:30:25;102671.69;;;11.19;72.14
73267;BME280;61495;53.400;7.608;2023-04-09T09:32:52;102671.22;;;11.39;72.61
73267;BME280;61495;53.400;7.608;2023-04-09T09:35:18;102662.50;;;11.53;72.12
73267;BME280;61495;53.400;7.608;2023-04-09T09:37:43;102657.78;;;11.80;73.14
73267;BME280;61495;53.400;7.608;2023-04-09T09:40:10;102654.59;;;11.92;71.25
73267;BME280;61495;53.400;7.608;2023-04-09T09:42:35;102652.72;;;12.01;70.60
73267;BME280;61495;53.400;7.608;2023-04-09T09:45:05;102645.31;;;12.03;69.85
73267;BME280;61495;53.400;7.608;2023-04-09T09:47:42;102654.00;;;12.21;70.08
73267;BME280;61495;53.400;7.608;2023-04-09T09:50:08;102653.31;;;12.27;69.75
73267;BME280;61495;53.400;7.608;2023-04-09T09:52:36;102654.66;;;12.31;69.24
73267;BME280;61495;53.400;7.608;2023-04-09T09:55:05;102647.00;;;12.59;69.42
73267;BME280;61495;53.400;7.608;2023-04-09T09:57:32;102647.72;;;12.75;68.62
73267;BME280;61495;53.400;7.608;2023-04-09T10:00:01;102652.53;;;12.88;67.94
73267;BME280;61495;53.400;7.608;2023-04-09T10:02:31;102654.97;;;12.98;67.26
73267;BME280;61495;53.400;7.608;2023-04-09T10:05:01;102648.94;;;12.96;65.94
73267;BME280;61495;53.400;7.608;2023-04-09T10:07:29;102655.47;;;13.09;65.94
73267;BME280;61495;53.400;7.608;2023-04-09T10:09:55;102656.28;;;13.10;67.21
73267;BME280;61495;53.400;7.608;2023-04-09T10:12:22;102652.13;;;13.30;66.95
73267;BME280;61495;53.400;7.608;2023-04-09T10:14:51;102644.84;;;13.53;67.39
73267;BME280;61495;53.400;7.608;2023-04-09T10:17:20;102646.00;;;13.36;64.85
73267;BME280;61495;53.400;7.608;2023-04-09T10:19:55;102639.16;;;13.48;65.27
73267;BME280;61495;53.400;7.608;2023-04-09T10:22:26;102632.50;;;13.59;65.30
73267;BME280;61495;53.400;7.608;2023-04-09T10:24:53;102631.38;;;13.53;65.84
73267;BME280;61495;53.400;7.608;2023-04-09T10:27:19;102631.91;;;13.49;65.43
73267;BME280;61495;53.400;7.608;2023-04-09T10:29:50;102623.41;;;13.60;63.97
73267;BME280;61495;53.400;7.608;2023-04-09T10:32:21;102625.78;;;13.77;64.55
73267;BME280;61495;53.400;7.608;2023-04-09T10:34:48;102621.41;;;13.76;65.04
73267;BME280;61495;53.400;7.608;2023-04-09T10:37:19;102625.31;;;13.88;64.66
73267;BME280;61495;53.400;7.608;2023-04-09T10:39:46;102622.41;;;13.90;62.81
73267;BME280;61495;53.400;7.608;2023-04-09T10:42:19;102622.41;;;13.90;63.14
73267;BME280;61495;53.400;7.608;2023-04-09T10:45:09;102610.81;;;14.19;62.23
73267;BME280;61495;53.400;7.608;2023-04-09T10:47:39;102616.84;;;14.21;61.76
73267;BME280;61495;53.400;7.608;2023-04-09T10:50:23;102609.31;;;14.31;62.09
73267;BME280;61495;53.400;7.608;2023-04-09T10:52:54;102607.31;;;14.33;61.80
73267;BME280;61495;53.400;7.608;2023-04-09T10:55:35;102603.34;;;14.50;61.31
73267;BME280;61495;53.400;7.608;2023-04-09T10:58:03;102602.38;;;14.72;62.61
73267;BME280;61495;53.400;7.608;2023-04-09T11:00:29;102600.69;;;14.71;61.88
73267;BME280;61495;53.400;7.608;2023-04-09T11:05:53;102598.03;;;14.92;61.91
73267;BME280;61495;53.400;7.608;2023-04-09T11:08:19;102589.34;;;14.97;58.61
73267;BME280;61495;53.400;7.608;2023-04-09T11:10:46;102592.81;;;15.12;60.48
73267;BME280;61495;53.400;7.608;2023-04-09T11:13:13;102590.94;;;15.13;60.16
73267;BME280;61495;53.400;7.608;2023-04-09T11:15:52;102586.84;;;15.44;62.46
73267;BME280;61495;53.400;7.608;2023-04-09T11:18:23;102576.13;;;15.51;60.08
73267;BME280;61495;53.400;7.608;2023-04-09T11:20:56;102576.13;;;15.51;59.33
73267;BME280;61495;53.400;7.608;2023-04-09T11:23:22;102574.56;;;15.63;58.75
73267;BME280;61495;53.400;7.608;2023-04-09T11:25:49;102576.53;;;15.76;58.08
73267;BME280;61495;53.400;7.608;2023-04-09T11:28:15;102571.78;;;15.84;58.84
73267;BME280;61495;53.400;7.608;2023-04-09T11:30:41;102574.72;;;15.55;56.33
73267;BME280;61495;53.400;7.608;2023-04-09T11:33:07;102570.91;;;15.77;58.25
73267;BME280;61495;53.400;7.608;2023-04-09T11:35:33;102568.13;;;15.98;59.24
73267;BME280;61495;53.400;7.608;2023-04-09T11:38:04;102567.81;;;16.15;58.18
73267;BME280;61495;53.400;7.608;2023-04-09T11:40:30;102570.59;;;16.34;60.21
73267;BME280;61495;53.400;7.608;2023-04-09T11:42:55;102567.91;;;16.41;58.24
73267;BME280;61495;53.400;7.608;2023-04-09T11:45:25;102572.03;;;16.37;57.95
73267;BME280;61495;53.400;7.608;2023-04-09T11:47:55;102562.72;;;16.46;57.51
73267;BME280;61495;53.400;7.608;2023-04-09T11:50:21;102554.19;;;16.49;55.40
73267;BME280;61495;53.400;7.608;2023-04-09T11:52:47;102559.66;;;16.55;55.54
73267;BME280;61495;53.400;7.608;2023-04-09T11:55:28;102558.31;;;16.38;54.57
73267;BME280;61495;53.400;7.608;2023-04-09T11:57:58;102551.16;;;16.18;55.62
73267;BME280;61495;53.400;7.608;2023-04-09T12:00:27;102557.22;;;16.20;55.83
73267;BME280;61495;53.400;7.608;2023-04-09T12:03:03;102553.84;;;16.65;57.91
73267;BME280;61495;53.400;7.608;2023-04-09T12:05:33;102559.69;;;16.62;56.05
73267;BME280;61495;53.400;7.608;2023-04-09T12:10:29;102562.44;;;16.28;53.94
73267;BME280;61495;53.400;7.608;2023-04-09T12:13:00;102562.13;;;16.57;57.26
73267;BME280;61495;53.400;7.608;2023-04-09T12:15:30;102566.69;;;16.50;54.18
73267;BME280;61495;53.400;7.608;2023-04-09T12:17:57;102559.03;;;16.60;56.38
73267;BME280;61495;53.400;7.608;2023-04-09T12:20:26;102565.94;;;16.69;55.47
73267;BME280;61495;53.400;7.608;2023-04-09T12:22:53;102566.75;;;16.63;56.04
73267;BME280;61495;53.400;7.608;2023-04-09T12:25:18;102563.47;;;16.87;57.14
73267;BME280;61495;53.400;7.608;2023-04-09T12:27:44;102563.25;;;16.82;55.67
73267;BME280;61495;53.400;7.608;2023-04-09T12:30:10;102566.78;;;16.76;54.07
73267;BME280;61495;53.400;7.608;2023-04-09T12:32:35;102563.88;;;16.71;53.03
73267;BME280;61495;53.400;7.608;2023-04-09T12:35:01;102559.09;;;16.99;57.15
73267;BME280;61495;53.400;7.608;2023-04-09T12:37:27;102553.94;;;17.04;54.15
73267;BME280;61495;53.400;7.608;2023-04-09T12:39:53;102561.00;;;16.92;56.04
73267;BME280;61495;53.400;7.608;2023-04-09T12:42:18;102553.44;;;16.68;55.39
73267;BME280;61495;53.400;7.608;2023-04-09T12:44:44;102547.63;;;16.84;55.19
73267;BME280;61495;53.400;7.608;2023-04-09T12:47:10;102546.81;;;16.77;53.97
73267;BME280;61495;53.400;7.608;2023-04-09T12:49:35;102541.78;;;16.81;53.69
73267;BME280;61495;53.400;7.608;2023-04-09T12:52:01;102541.84;;;17.00;55.59
73267;BME280;61495;53.400;7.608;2023-04-09T12:54:26;102540.38;;;17.04;55.45
73267;BME280;61495;53.400;7.608;2023-04-09T12:56:52;102533.91;;;17.18;55.38
73267;BME280;61495;53.400;7.608;2023-04-09T12:59:19;102533.06;;;17.31;55.36
73267;BME280;61495;53.400;7.608;2023-04-09T13:01:45;102529.31;;;16.80;51.79
73267;BME280;61495;53.400;7.608;2023-04-09T13:04:10;102530.47;;;16.44;50.65
73267;BME280;61495;53.400;7.608;2023-04-09T13:06:36;102527.25;;;16.88;55.81
73267;BME280;61495;53.400;7.608;2023-04-09T13:09:01;102523.91;;;16.99;55.39